createdAt,value
2018-06-16T00:00:34.921Z,1002.21
2018-06-16T00:01:34.943Z,1002.17
2018-06-16T00:02:34.972Z,1002.18
2018-06-16T00:03:34.988Z,1002.18
2018-06-16T00:04:35.002Z,1002.16
2018-06-16T00:05:35.059Z,1002.18
2018-06-16T00:06:35.050Z,1002.14
2018-06-16T00:07:35.063Z,1002.17
2018-06-16T00:08:35.083Z,1002.15
2018-06-16T00:09:35.107Z,1002.17
2018-06-16T00:10:35.121Z,1002.16
2018-06-16T00:11:35.148Z,1002.16
2018-06-16T00:12:35.164Z,1002.19
2018-06-16T00:13:35.190Z,1002.19
2018-06-16T00:14:35.251Z,1002.17
2018-06-16T00:15:35.234Z,1002.18
2018-06-16T00:16:35.249Z,1002.18
2018-06-16T00:17:35.270Z,1002.17
2018-06-16T00:18:35.295Z,1002.18
2018-06-16T00:19:35.316Z,1002.20
2018-06-16T00:20:35.333Z,1002.17
2018-06-16T00:21:35.352Z,1002.20
2018-06-16T00:22:35.378Z,1002.20
2018-06-16T00:23:35.392Z,1002.18
2018-06-16T00:24:35.413Z,1002.18
2018-06-16T00:25:35.434Z,1002.14
2018-06-16T00:26:35.455Z,1002.19
2018-06-16T00:27:35.472Z,1002.12
2018-06-16T00:28:35.490Z,1002.16
2018-06-16T00:29:35.513Z,1002.14
2018-06-16T00:30:35.537Z,1002.15
2018-06-16T00:31:35.564Z,1002.11
2018-06-16T00:32:35.576Z,1002.08
2018-06-16T00:33:35.604Z,1002.06
2018-06-16T00:34:35.613Z,1002.05
2018-06-16T00:35:35.642Z,1002.04
2018-06-16T00:36:35.656Z,1002.08
2018-06-16T00:37:35.680Z,1002.06
2018-06-16T00:38:35.697Z,1002.06
2018-06-16T00:39:35.715Z,1002.03
2018-06-16T00:40:35.740Z,1002.03
2018-06-16T00:41:35.761Z,1001.99
2018-06-16T00:42:35.778Z,1001.98
2018-06-16T00:43:35.797Z,1001.98
2018-06-16T00:44:35.819Z,1001.95
2018-06-16T00:45:35.846Z,1001.96
2018-06-16T00:46:35.859Z,1001.99
2018-06-16T00:47:35.880Z,1001.96
2018-06-16T00:48:35.928Z,1001.97
2018-06-16T00:49:35.925Z,1001.97
2018-06-16T00:50:35.951Z,1001.92
2018-06-16T00:51:35.965Z,1001.91
2018-06-16T00:52:35.981Z,1001.94
2018-06-16T00:53:36.010Z,1001.92
2018-06-16T00:54:36.030Z,1001.95
2018-06-16T00:55:36.041Z,1001.95
2018-06-16T00:56:36.064Z,1001.96
2018-06-16T00:57:36.093Z,1001.99
2018-06-16T00:58:36.105Z,1002.03
2018-06-16T00:59:36.125Z,1002.02
2018-06-16T01:00:36.143Z,1002.08
2018-06-16T01:01:36.175Z,1002.07
2018-06-16T01:02:36.183Z,1002.10
2018-06-16T01:03:36.204Z,1002.09
2018-06-16T01:04:36.229Z,1002.06
2018-06-16T01:05:36.253Z,1002.06
2018-06-16T01:06:36.269Z,1002.08
2018-06-16T01:07:36.298Z,1002.08
2018-06-16T01:08:36.311Z,1002.09
2018-06-16T01:09:36.329Z,1002.09
2018-06-16T01:10:36.358Z,1002.08
2018-06-16T01:11:36.377Z,1002.08
2018-06-16T01:12:36.394Z,1002.11
2018-06-16T01:13:36.412Z,1002.08
2018-06-16T01:14:36.428Z,1002.05
2018-06-16T01:15:36.463Z,1002.02
2018-06-16T01:16:36.472Z,1002.04
2018-06-16T01:17:36.493Z,1002.03
2018-06-16T01:18:36.534Z,1002.02
2018-06-16T01:19:36.536Z,1002.05
2018-06-16T01:20:36.553Z,1002.03
2018-06-16T01:21:36.584Z,1001.97
2018-06-16T01:22:36.617Z,1001.99
2018-06-16T01:23:36.636Z,1002.02
2018-06-16T01:24:36.637Z,1002.01
2018-06-16T01:25:36.655Z,1002.01
2018-06-16T01:26:36.683Z,1002.03
2018-06-16T01:27:36.698Z,1002.04
2018-06-16T01:28:36.720Z,1002.00
2018-06-16T01:29:36.744Z,1002.03
2018-06-16T01:30:36.764Z,1002.03
2018-06-16T01:31:36.777Z,1002.01
2018-06-16T01:32:36.804Z,1002.00
2018-06-16T01:33:36.820Z,1001.98
2018-06-16T01:34:36.845Z,1001.97
2018-06-16T01:35:36.863Z,1001.98
2018-06-16T01:36:36.890Z,1001.96
2018-06-16T01:37:36.906Z,1001.94
2018-06-16T01:38:36.922Z,1001.92
2018-06-16T01:39:36.946Z,1001.89
2018-06-16T01:40:36.964Z,1001.89
2018-06-16T01:41:36.984Z,1001.85
2018-06-16T01:42:37.004Z,1001.84
2018-06-16T01:43:37.035Z,1001.82
2018-06-16T01:44:37.049Z,1001.83
2018-06-16T01:45:37.070Z,1001.85
2018-06-16T01:46:37.095Z,1001.80
2018-06-16T01:47:37.106Z,1001.81
2018-06-16T01:48:37.129Z,1001.80
2018-06-16T01:49:37.149Z,1001.78
2018-06-16T01:50:37.188Z,1001.76
2018-06-16T01:51:37.188Z,1001.81
2018-06-16T01:52:37.207Z,1001.79
2018-06-16T01:53:37.230Z,1001.77
2018-06-16T01:54:37.248Z,1001.80
2018-06-16T01:55:37.268Z,1001.79
2018-06-16T01:56:37.294Z,1001.74
2018-06-16T01:57:37.325Z,1001.74
2018-06-16T01:58:37.337Z,1001.76
2018-06-16T01:59:37.359Z,1001.75
2018-06-16T02:00:37.371Z,1001.75
2018-06-16T02:01:37.392Z,1001.73
2018-06-16T02:02:37.417Z,1001.70
2018-06-16T02:03:37.439Z,1001.73
2018-06-16T02:04:37.456Z,1001.72
2018-06-16T02:05:37.473Z,1001.73
2018-06-16T02:06:37.497Z,1001.72
2018-06-16T02:07:37.521Z,1001.73
2018-06-16T02:08:37.539Z,1001.72
2018-06-16T02:09:37.558Z,1001.75
2018-06-16T02:10:37.578Z,1001.71
2018-06-16T02:11:37.598Z,1001.70
2018-06-16T02:12:37.619Z,1001.73
2018-06-16T02:13:37.641Z,1001.72
2018-06-16T02:14:37.658Z,1001.75
2018-06-16T02:15:37.683Z,1001.74
2018-06-16T02:16:37.704Z,1001.71
2018-06-16T02:17:37.721Z,1001.74
2018-06-16T02:18:37.751Z,1001.72
2018-06-16T02:19:37.760Z,1001.74
2018-06-16T02:20:37.780Z,1001.74
2018-06-16T02:21:37.805Z,1001.75
2018-06-16T02:22:37.826Z,1001.75
2018-06-16T02:23:37.843Z,1001.74
2018-06-16T02:24:37.865Z,1001.78
2018-06-16T02:25:37.886Z,1001.75
2018-06-16T02:26:37.907Z,1001.79
2018-06-16T02:27:37.923Z,1001.78
2018-06-16T02:28:37.955Z,1001.82
2018-06-16T02:29:37.984Z,1001.86
2018-06-16T02:30:37.991Z,1001.83
2018-06-16T02:31:38.011Z,1001.84
2018-06-16T02:32:38.033Z,1001.85
2018-06-16T02:33:38.055Z,1001.87
2018-06-16T02:34:38.076Z,1001.83
2018-06-16T02:35:38.093Z,1001.83
2018-06-16T02:36:38.110Z,1001.80
2018-06-16T02:37:38.135Z,1001.78
2018-06-16T02:38:38.152Z,1001.83
2018-06-16T02:39:38.181Z,1001.80
2018-06-16T02:40:38.197Z,1001.81
2018-06-16T02:41:38.256Z,1001.83
2018-06-16T02:42:38.234Z,1001.84
2018-06-16T02:43:38.262Z,1001.88
2018-06-16T02:44:38.281Z,1001.90
2018-06-16T02:45:38.297Z,1001.93
2018-06-16T02:46:38.317Z,1001.91
2018-06-16T02:47:38.345Z,1001.91
2018-06-16T02:48:38.362Z,1001.92
2018-06-16T02:49:38.381Z,1001.89
2018-06-16T02:50:38.402Z,1001.87
2018-06-16T02:51:38.492Z,1001.87
2018-06-16T02:52:38.441Z,1001.91
2018-06-16T02:53:38.469Z,1001.87
2018-06-16T02:54:38.487Z,1001.91
2018-06-16T02:55:38.510Z,1001.87
2018-06-16T02:56:38.524Z,1001.90
2018-06-16T02:57:38.551Z,1001.88
2018-06-16T02:58:38.565Z,1001.83
2018-06-16T02:59:38.590Z,1001.83
2018-06-16T03:00:38.610Z,1001.81
2018-06-16T03:01:38.628Z,1001.79
2018-06-16T03:02:38.652Z,1001.83
2018-06-16T03:03:38.673Z,1001.82
2018-06-16T03:04:38.689Z,1001.79
2018-06-16T03:05:38.715Z,1001.77
2018-06-16T03:06:38.738Z,1001.78
2018-06-16T03:07:38.752Z,1001.79
2018-06-16T03:08:38.771Z,1001.79
2018-06-16T03:09:38.792Z,1001.79
2018-06-16T03:10:38.825Z,1001.82
2018-06-16T03:11:38.834Z,1001.83
2018-06-16T03:12:38.854Z,1001.86
2018-06-16T03:13:38.879Z,1001.85
2018-06-16T03:14:38.894Z,1001.83
2018-06-16T03:15:38.916Z,1001.87
2018-06-16T03:16:38.939Z,1001.86
2018-06-16T03:17:38.961Z,1001.88
2018-06-16T03:18:38.983Z,1001.86
2018-06-16T03:19:38.995Z,1001.86
2018-06-16T03:20:39.026Z,1001.87
2018-06-16T03:21:39.040Z,1001.87
2018-06-16T03:22:39.059Z,1001.89
2018-06-16T03:23:39.080Z,1001.84
2018-06-16T03:24:39.117Z,1001.85
2018-06-16T03:25:39.123Z,1001.80
2018-06-16T03:26:39.156Z,1001.80
2018-06-16T03:27:39.168Z,1001.79
2018-06-16T03:28:39.187Z,1001.76
2018-06-16T03:29:39.208Z,1001.76
2018-06-16T03:30:39.248Z,1001.79
2018-06-16T03:31:39.252Z,1001.78
2018-06-16T03:32:39.266Z,1001.78
2018-06-16T03:33:39.293Z,1001.80
2018-06-16T03:34:39.317Z,1001.82
2018-06-16T03:35:39.332Z,1001.78
2018-06-16T03:36:39.356Z,1001.82
2018-06-16T03:37:39.369Z,1001.76
2018-06-16T03:38:39.398Z,1001.78
2018-06-16T03:39:39.411Z,1001.76
2018-06-16T03:40:39.438Z,1001.80
2018-06-16T03:41:39.454Z,1001.78
2018-06-16T03:42:39.486Z,1001.81
2018-06-16T03:43:39.496Z,1001.80
2018-06-16T03:44:39.533Z,1001.81
2018-06-16T03:45:39.543Z,1001.76
2018-06-16T03:46:39.560Z,1001.78
2018-06-16T03:47:39.576Z,1001.78
2018-06-16T03:48:39.603Z,1001.79
2018-06-16T03:49:39.635Z,1001.78
2018-06-16T03:50:39.645Z,1001.75
2018-06-16T03:51:39.665Z,1001.74
2018-06-16T03:52:39.688Z,1001.75
2018-06-16T03:53:39.703Z,1001.74
2018-06-16T03:54:39.731Z,1001.76
2018-06-16T03:55:39.749Z,1001.81
2018-06-16T03:56:39.766Z,1001.79
2018-06-16T03:57:39.799Z,1001.81
2018-06-16T03:58:39.813Z,1001.78
2018-06-16T03:59:39.833Z,1001.80
2018-06-16T04:00:39.851Z,1001.78
2018-06-16T04:01:39.875Z,1001.79
2018-06-16T04:02:39.894Z,1001.81
2018-06-16T04:03:39.915Z,1001.78
2018-06-16T04:04:39.939Z,1001.81
2018-06-16T04:05:39.950Z,1001.81
2018-06-16T04:06:39.984Z,1001.81
2018-06-16T04:07:39.999Z,1001.80
2018-06-16T04:08:40.017Z,1001.84
2018-06-16T04:09:40.039Z,1001.82
2018-06-16T04:10:40.071Z,1001.83
2018-06-16T04:11:40.115Z,1001.82
2018-06-16T04:12:40.151Z,1001.84
2018-06-16T04:13:40.140Z,1001.82
2018-06-16T04:14:40.161Z,1001.77
2018-06-16T04:15:40.167Z,1001.76
2018-06-16T04:16:40.186Z,1001.78
2018-06-16T04:17:40.224Z,1001.75
2018-06-16T04:18:40.227Z,1001.76
2018-06-16T04:19:40.251Z,1001.76
2018-06-16T04:20:40.305Z,1001.73
2018-06-16T04:21:40.312Z,1001.74
2018-06-16T04:22:40.325Z,1001.72
2018-06-16T04:23:40.347Z,1001.71
2018-06-16T04:24:40.359Z,1001.70
2018-06-16T04:25:40.388Z,1001.70
2018-06-16T04:26:40.402Z,1001.71
2018-06-16T04:27:40.464Z,1001.72
2018-06-16T04:28:40.481Z,1001.69
2018-06-16T04:29:40.464Z,1001.70
2018-06-16T04:30:40.500Z,1001.71
2018-06-16T04:31:40.600Z,1001.69
2018-06-16T04:32:40.528Z,1001.71
2018-06-16T04:33:40.568Z,1001.74
2018-06-16T04:34:40.634Z,1001.72
2018-06-16T04:35:40.596Z,1001.74
2018-06-16T04:36:40.617Z,1001.72
2018-06-16T04:37:40.633Z,1001.73
2018-06-16T04:38:40.663Z,1001.76
2018-06-16T04:39:40.676Z,1001.75
2018-06-16T04:40:40.706Z,1001.76
2018-06-16T04:41:40.728Z,1001.78
2018-06-16T04:42:40.742Z,1001.78
2018-06-16T04:43:40.803Z,1001.77
2018-06-16T04:44:40.790Z,1001.76
2018-06-16T04:45:40.861Z,1001.78
2018-06-16T04:46:40.841Z,1001.80
2018-06-16T04:47:40.853Z,1001.85
2018-06-16T04:48:40.871Z,1001.84
2018-06-16T04:49:40.904Z,1001.80
2018-06-16T04:50:40.931Z,1001.79
2018-06-16T04:51:40.943Z,1001.79
2018-06-16T04:52:40.971Z,1001.78
2018-06-16T04:53:41.005Z,1001.80
2018-06-16T04:54:41.007Z,1001.81
2018-06-16T04:55:41.045Z,1001.83
2018-06-16T04:56:41.065Z,1001.84
2018-06-16T04:57:41.074Z,1001.83
2018-06-16T04:58:41.100Z,1001.84
2018-06-16T04:59:41.116Z,1001.88
2018-06-16T05:00:41.141Z,1001.87
2018-06-16T05:01:41.164Z,1001.84
2018-06-16T05:02:41.183Z,1001.87
2018-06-16T05:03:41.203Z,1001.87
2018-06-16T05:04:41.228Z,1001.85
2018-06-16T05:05:41.255Z,1001.90
2018-06-16T05:06:41.277Z,1001.90
2018-06-16T05:07:41.293Z,1001.91
2018-06-16T05:08:41.355Z,1001.89
2018-06-16T05:09:41.343Z,1001.93
2018-06-16T05:10:41.362Z,1001.95
2018-06-16T05:11:41.391Z,1001.95
2018-06-16T05:12:41.410Z,1001.95
2018-06-16T05:13:41.433Z,1001.96
2018-06-16T05:14:41.452Z,1001.95
2018-06-16T05:15:41.480Z,1001.98
2018-06-16T05:16:41.595Z,1001.96
2018-06-16T05:17:41.525Z,1002.00
2018-06-16T05:18:41.558Z,1002.04
2018-06-16T05:19:41.569Z,1002.01
2018-06-16T05:20:41.585Z,1002.00
2018-06-16T05:21:41.616Z,1001.99
2018-06-16T05:22:41.630Z,1001.97
2018-06-16T05:23:41.662Z,1002.05
2018-06-16T05:24:41.677Z,1002.03
2018-06-16T05:25:41.735Z,1002.25
2018-06-16T05:26:41.725Z,1002.33
2018-06-16T05:27:41.749Z,1002.28
2018-06-16T05:28:41.817Z,1002.33
2018-06-16T05:29:41.793Z,1002.30
2018-06-16T05:30:41.821Z,1002.31
2018-06-16T05:31:41.855Z,1002.27
2018-06-16T05:32:41.863Z,1002.44
2018-06-16T05:33:41.893Z,1002.28
2018-06-16T05:34:41.924Z,1002.29
2018-06-16T05:35:41.940Z,1002.28
2018-06-16T05:36:41.958Z,1002.25
2018-06-16T05:37:41.989Z,1002.25
2018-06-16T05:38:42.012Z,1002.25
2018-06-16T05:39:42.035Z,1002.28
2018-06-16T05:40:42.066Z,1002.34
2018-06-16T05:41:42.093Z,1002.45
2018-06-16T05:42:42.107Z,1002.70
2018-06-16T05:43:42.137Z,1002.83
2018-06-16T05:44:42.154Z,1002.96
2018-06-16T05:45:42.182Z,1003.04
2018-06-16T05:46:42.207Z,1003.07
2018-06-16T05:47:42.224Z,1003.08
2018-06-16T05:48:42.299Z,1003.10
2018-06-16T05:49:42.279Z,1003.04
2018-06-16T05:50:42.323Z,1003.07
2018-06-16T05:51:42.335Z,1003.11
2018-06-16T05:52:42.355Z,1003.06
2018-06-16T05:53:42.374Z,1003.15
2018-06-16T05:54:42.417Z,1003.22
2018-06-16T05:55:42.431Z,1003.19
2018-06-16T05:56:42.462Z,1003.20
2018-06-16T05:57:42.490Z,1003.21
2018-06-16T05:58:42.511Z,1003.31
2018-06-16T05:59:42.538Z,1003.51
2018-06-16T06:00:42.564Z,1003.35
2018-06-16T06:01:42.593Z,1003.95
2018-06-16T06:02:42.619Z,1004.14
2018-06-16T06:03:42.646Z,1004.31
2018-06-16T06:04:42.669Z,1004.15
2018-06-16T06:05:42.697Z,1004.20
2018-06-16T06:06:42.724Z,1004.39
2018-06-16T06:07:42.756Z,1004.24
2018-06-16T06:08:42.776Z,1004.45
2018-06-16T06:09:42.816Z,1004.30
2018-06-16T06:10:42.835Z,1004.14
2018-06-16T06:11:42.865Z,1004.00
2018-06-16T06:12:42.938Z,1004.07
2018-06-16T06:13:42.922Z,1004.09
2018-06-16T06:14:42.946Z,1004.06
2018-06-16T06:15:43.025Z,1004.27
2018-06-16T06:16:43.004Z,1004.41
2018-06-16T06:17:43.032Z,1004.37
2018-06-16T06:18:43.062Z,1004.54
2018-06-16T06:19:43.097Z,1004.81
2018-06-16T06:20:43.127Z,1004.46
2018-06-16T06:21:43.149Z,1004.26
2018-06-16T06:22:43.181Z,1003.91
2018-06-16T06:23:43.205Z,1003.82
2018-06-16T06:24:43.235Z,1003.91
2018-06-16T06:25:43.278Z,1003.96
2018-06-16T06:26:43.288Z,1004.11
2018-06-16T06:27:43.318Z,1004.64
2018-06-16T06:28:43.348Z,1004.85
2018-06-16T06:29:43.382Z,1004.83
2018-06-16T06:30:43.411Z,1004.64
2018-06-16T06:31:43.435Z,1004.71
2018-06-16T06:32:43.464Z,1004.80
2018-06-16T06:33:43.491Z,1004.84
2018-06-16T06:34:43.523Z,1004.83
2018-06-16T06:35:43.553Z,1004.59
2018-06-16T06:36:43.581Z,1004.58
2018-06-16T06:37:43.613Z,1004.81
2018-06-16T06:38:43.634Z,1004.69
2018-06-16T06:39:43.668Z,1005.03
2018-06-16T06:40:43.692Z,1004.86
2018-06-16T06:41:43.719Z,1004.71
2018-06-16T06:42:43.748Z,1004.74
2018-06-16T06:43:43.782Z,1004.93
2018-06-16T06:44:43.812Z,1004.88
2018-06-16T06:45:43.836Z,1004.94
2018-06-16T06:46:43.884Z,1004.68
2018-06-16T06:47:43.898Z,1004.91
2018-06-16T06:48:43.932Z,1004.83
2018-06-16T06:49:43.962Z,1005.79
2018-06-16T06:50:43.982Z,1006.11
2018-06-16T06:51:44.057Z,1006.16
2018-06-16T06:52:44.038Z,1006.14
2018-06-16T06:53:44.078Z,1006.18
2018-06-16T06:54:44.103Z,1006.05
2018-06-16T06:55:44.127Z,1006.03
2018-06-16T06:56:44.146Z,1005.84
2018-06-16T06:57:44.190Z,1006.25
2018-06-16T06:58:44.214Z,1006.05
2018-06-16T06:59:44.240Z,1006.13
2018-06-16T07:00:44.296Z,1006.14
2018-06-16T07:01:44.312Z,1005.74
2018-06-16T07:02:44.323Z,1005.63
2018-06-16T07:03:44.346Z,1005.90
2018-06-16T07:04:44.382Z,1005.90
2018-06-16T07:05:44.405Z,1005.71
2018-06-16T07:06:44.439Z,1006.35
2018-06-16T07:07:44.468Z,1006.96
2018-06-16T07:08:44.488Z,1006.82
2018-06-16T07:09:44.522Z,1006.64
2018-06-16T07:10:44.639Z,1007.45
2018-06-16T07:11:44.586Z,1007.35
2018-06-16T07:12:44.612Z,1006.91
2018-06-16T07:13:44.645Z,1006.50
2018-06-16T07:14:44.674Z,1006.74
2018-06-16T07:15:44.696Z,1006.35
2018-06-16T07:16:44.724Z,1006.38
2018-06-16T07:17:44.751Z,1006.82
2018-06-16T07:18:44.778Z,1006.51
2018-06-16T07:19:44.816Z,1006.99
2018-06-16T07:20:44.840Z,1007.65
2018-06-16T07:21:44.873Z,1007.07
2018-06-16T07:22:44.893Z,1007.30
2018-06-16T07:23:44.922Z,1006.78
2018-06-16T07:24:44.947Z,1007.58
2018-06-16T07:25:44.984Z,1007.84
2018-06-16T07:26:45.009Z,1007.84
2018-06-16T07:27:45.045Z,1006.18
2018-06-16T07:28:45.066Z,1007.04
2018-06-16T07:29:45.095Z,1007.25
2018-06-16T07:30:45.138Z,1006.98
2018-06-16T07:31:45.185Z,1006.37
2018-06-16T07:32:45.191Z,1005.83
2018-06-16T07:33:45.215Z,1005.61
2018-06-16T07:34:45.265Z,1005.57
2018-06-16T07:35:45.276Z,1005.52
2018-06-16T07:36:45.310Z,1005.79
2018-06-16T07:37:45.339Z,1006.02
2018-06-16T07:38:45.367Z,1006.75
2018-06-16T07:39:45.395Z,1006.37
2018-06-16T07:40:45.417Z,1007.70
2018-06-16T07:41:45.464Z,1005.88
2018-06-16T07:42:45.479Z,1006.59
2018-06-16T07:43:45.513Z,1006.28
2018-06-16T07:44:45.533Z,1007.52
2018-06-16T07:45:45.575Z,1007.99
2018-06-16T07:46:45.594Z,1008.03
2018-06-16T07:47:45.620Z,1006.26
2018-06-16T07:48:45.652Z,1003.65
2018-06-16T07:49:45.682Z,1003.56
2018-06-16T07:50:45.705Z,1003.66
2018-06-16T07:51:45.735Z,1003.57
2018-06-16T07:52:45.763Z,1003.78
2018-06-16T07:53:45.882Z,1006.28
2018-06-16T07:54:45.823Z,1005.21
2018-06-16T07:55:45.890Z,1005.83
2018-06-16T07:56:45.988Z,1007.19
2018-06-16T07:57:45.951Z,1006.54
2018-06-16T07:58:45.937Z,1006.88
2018-06-16T07:59:46.074Z,1007.08
2018-06-16T08:00:46.032Z,1006.74
2018-06-16T08:01:46.027Z,1007.73
2018-06-16T08:02:46.169Z,1006.98
2018-06-16T08:03:46.071Z,1006.45
2018-06-16T08:04:46.123Z,1007.00
2018-06-16T08:05:46.143Z,1006.97
2018-06-16T08:06:46.158Z,1006.81
2018-06-16T08:07:46.184Z,1005.66
2018-06-16T08:08:46.213Z,1005.68
2018-06-16T08:09:46.243Z,1006.73
2018-06-16T08:10:46.276Z,1007.66
2018-06-16T08:11:46.301Z,1008.39
2018-06-16T08:12:46.344Z,1007.50
2018-06-16T08:13:46.361Z,1006.94
2018-06-16T08:14:46.381Z,1006.25
2018-06-16T08:15:46.412Z,1005.90
2018-06-16T08:16:46.446Z,1007.39
2018-06-16T08:17:46.867Z,1006.74
2018-06-16T08:18:46.538Z,1007.38
2018-06-16T08:19:46.729Z,1005.67
2018-06-16T08:20:46.551Z,1007.74
2018-06-16T08:21:46.581Z,1007.62
2018-06-16T08:22:46.612Z,1007.35
2018-06-16T08:23:46.638Z,1007.52
2018-06-16T08:24:46.666Z,1007.27
2018-06-16T08:25:46.690Z,1007.52
2018-06-16T08:26:46.723Z,1006.80
2018-06-16T08:27:46.745Z,1006.47
2018-06-16T08:28:46.778Z,1006.12
2018-06-16T08:29:46.806Z,1006.69
2018-06-16T08:30:46.827Z,1006.16
2018-06-16T08:31:46.861Z,1006.68
2018-06-16T08:32:46.891Z,1005.27
2018-06-16T08:33:46.915Z,1004.03
2018-06-16T08:34:46.975Z,1003.57
2018-06-16T08:35:46.964Z,1003.36
2018-06-16T08:36:46.996Z,1003.14
2018-06-16T08:37:47.027Z,1003.08
2018-06-16T08:38:47.059Z,1003.07
2018-06-16T08:39:47.092Z,1003.01
2018-06-16T08:40:47.105Z,1002.92
2018-06-16T08:41:47.133Z,1002.86
2018-06-16T08:42:47.166Z,1002.82
2018-06-16T08:43:47.182Z,1002.80
2018-06-16T08:44:47.210Z,1002.79
2018-06-16T08:45:47.238Z,1002.76
2018-06-16T08:46:47.267Z,1002.77
2018-06-16T08:47:47.318Z,1002.76
2018-06-16T08:48:47.365Z,1002.71
2018-06-16T08:49:47.362Z,1002.75
2018-06-16T08:50:47.371Z,1002.76
2018-06-16T08:51:47.406Z,1002.81
2018-06-16T08:52:47.422Z,1002.84
2018-06-16T08:53:47.458Z,1002.84
2018-06-16T08:54:47.482Z,1002.84
2018-06-16T08:55:47.519Z,1002.81
2018-06-16T08:56:47.542Z,1002.84
2018-06-16T08:57:47.563Z,1002.83
2018-06-16T08:58:47.624Z,1002.71
2018-06-16T08:59:47.617Z,1002.73
2018-06-16T09:00:47.636Z,1002.67
2018-06-16T09:01:47.664Z,1002.72
2018-06-16T09:02:47.689Z,1002.76
2018-06-16T09:03:47.716Z,1002.81
2018-06-16T09:04:47.745Z,1002.72
2018-06-16T09:05:47.769Z,1002.75
2018-06-16T09:06:47.793Z,1002.73
2018-06-16T09:07:47.824Z,1002.68
2018-06-16T09:08:47.874Z,1002.76
2018-06-16T09:09:47.878Z,1002.70
2018-06-16T09:10:47.904Z,1002.73
2018-06-16T09:11:47.930Z,1002.67
2018-06-16T09:12:47.963Z,1002.62
2018-06-16T09:13:47.987Z,1002.62
2018-06-16T09:14:48.007Z,1002.55
2018-06-16T09:15:48.043Z,1002.57
2018-06-16T09:16:48.061Z,1002.65
2018-06-16T09:17:48.084Z,1002.64
2018-06-16T09:18:48.120Z,1002.61
2018-06-16T09:19:48.146Z,1002.62
2018-06-16T09:20:48.164Z,1002.62
2018-06-16T09:21:48.192Z,1002.55
2018-06-16T09:22:48.223Z,1002.50
2018-06-16T09:23:48.244Z,1002.48
2018-06-16T09:24:48.270Z,1002.47
2018-06-16T09:25:48.305Z,1002.49
2018-06-16T09:26:48.325Z,1002.45
2018-06-16T09:27:48.355Z,1002.36
2018-06-16T09:28:48.375Z,1002.27
2018-06-16T09:29:48.402Z,1002.20
2018-06-16T09:30:48.429Z,1002.22
2018-06-16T09:31:48.499Z,1002.22
2018-06-16T09:32:48.479Z,1002.39
2018-06-16T09:33:48.508Z,1002.42
2018-06-16T09:34:48.532Z,1002.31
2018-06-16T09:35:48.564Z,1002.22
2018-06-16T09:36:48.596Z,1002.17
2018-06-16T09:37:48.612Z,1002.23
2018-06-16T09:38:48.642Z,1002.38
2018-06-16T09:39:48.678Z,1002.23
2018-06-16T09:40:48.702Z,1002.11
2018-06-16T09:41:48.719Z,1002.06
2018-06-16T09:42:48.750Z,1002.05
2018-06-16T09:43:48.777Z,1002.09
2018-06-16T09:44:48.815Z,1001.97
2018-06-16T09:45:48.845Z,1001.95
2018-06-16T09:46:48.856Z,1002.03
2018-06-16T09:47:48.877Z,1002.07
2018-06-16T09:48:48.907Z,1002.07
2018-06-16T09:49:48.932Z,1002.15
2018-06-16T09:50:48.957Z,1002.08
2018-06-16T09:51:49.002Z,1002.05
2018-06-16T09:52:49.010Z,1002.09
2018-06-16T09:53:49.037Z,1002.05
2018-06-16T09:54:49.065Z,1002.03
2018-06-16T09:55:49.090Z,1002.06
2018-06-16T09:56:49.110Z,1002.10
2018-06-16T09:57:49.139Z,1002.16
2018-06-16T09:58:49.169Z,1002.18
2018-06-16T09:59:49.187Z,1002.23
2018-06-16T10:00:49.216Z,1002.30
2018-06-16T10:01:49.269Z,1002.33
2018-06-16T10:02:49.268Z,1002.33
2018-06-16T10:03:49.297Z,1002.31
2018-06-16T10:04:49.327Z,1002.28
2018-06-16T10:05:49.349Z,1002.16
2018-06-16T10:06:49.373Z,1002.11
2018-06-16T10:07:49.401Z,1002.10
2018-06-16T10:08:49.432Z,1002.03
2018-06-16T10:09:49.453Z,1002.04
2018-06-16T10:10:49.481Z,1001.92
2018-06-16T10:11:49.508Z,1001.88
2018-06-16T10:12:49.532Z,1001.88
2018-06-16T10:13:49.565Z,1001.82
2018-06-16T10:14:49.586Z,1001.75
2018-06-16T10:15:49.616Z,1001.70
2018-06-16T10:16:49.638Z,1001.74
2018-06-16T10:17:49.670Z,1001.81
2018-06-16T10:18:49.688Z,1001.90
2018-06-16T10:19:49.714Z,1001.96
2018-06-16T10:20:49.746Z,1002.00
2018-06-16T10:21:49.776Z,1002.00
2018-06-16T10:22:49.793Z,1002.01
2018-06-16T10:23:49.826Z,1002.01
2018-06-16T10:24:49.849Z,1002.01
2018-06-16T10:25:49.872Z,1002.02
2018-06-16T10:26:49.902Z,1001.99
2018-06-16T10:27:49.933Z,1002.00
2018-06-16T10:28:49.951Z,1001.96
2018-06-16T10:29:49.985Z,1001.89
2018-06-16T10:30:50.010Z,1001.91
2018-06-16T10:31:50.030Z,1001.96
2018-06-16T10:32:50.066Z,1001.97
2018-06-16T10:33:50.083Z,1001.93
2018-06-16T10:34:50.110Z,1001.94
2018-06-16T10:35:50.143Z,1001.87
2018-06-16T10:36:50.161Z,1001.84
2018-06-16T10:37:50.194Z,1001.83
2018-06-16T10:38:50.219Z,1001.86
2018-06-16T10:39:50.246Z,1001.84
2018-06-16T10:40:50.268Z,1001.88
2018-06-16T10:41:50.302Z,1001.86
2018-06-16T10:42:50.328Z,1001.86
2018-06-16T10:43:50.350Z,1001.88
2018-06-16T10:44:50.375Z,1001.85
2018-06-16T10:45:50.406Z,1001.80
2018-06-16T10:46:50.429Z,1001.82
2018-06-16T10:47:50.454Z,1001.77
2018-06-16T10:48:50.483Z,1001.75
2018-06-16T10:49:50.518Z,1001.69
2018-06-16T10:50:50.538Z,1001.66
2018-06-16T10:51:50.572Z,1001.63
2018-06-16T10:52:50.589Z,1001.54
2018-06-16T10:53:50.619Z,1001.53
2018-06-16T10:54:50.647Z,1001.48
2018-06-16T10:55:50.668Z,1001.48
2018-06-16T10:56:50.695Z,1001.43
2018-06-16T10:57:50.734Z,1001.43
2018-06-16T10:58:50.751Z,1001.42
2018-06-16T10:59:50.777Z,1001.40
2018-06-16T11:00:50.799Z,1001.43
2018-06-16T11:01:50.835Z,1001.46
2018-06-16T11:02:50.861Z,1001.43
2018-06-16T11:03:50.884Z,1001.45
2018-06-16T11:04:50.912Z,1001.49
2018-06-16T11:05:50.943Z,1001.49
2018-06-16T11:06:50.965Z,1001.47
2018-06-16T11:07:50.997Z,1001.52
2018-06-16T11:08:51.021Z,1001.51
2018-06-16T11:09:51.045Z,1001.51
2018-06-16T11:10:51.074Z,1001.51
2018-06-16T11:11:51.093Z,1001.47
2018-06-16T11:12:51.123Z,1001.45
2018-06-16T11:13:51.144Z,1001.45
2018-06-16T11:14:51.183Z,1001.43
2018-06-16T11:15:51.229Z,1001.49
2018-06-16T11:16:51.230Z,1001.48
2018-06-16T11:17:51.262Z,1001.47
2018-06-16T11:18:51.274Z,1001.49
2018-06-16T11:19:51.319Z,1001.48
2018-06-16T11:20:51.328Z,1001.49
2018-06-16T11:21:51.359Z,1001.49
2018-06-16T11:22:51.385Z,1001.54
2018-06-16T11:23:51.405Z,1001.54
2018-06-16T11:24:51.438Z,1001.55
2018-06-16T11:25:51.460Z,1001.54
2018-06-16T11:26:51.493Z,1001.52
2018-06-16T11:27:51.520Z,1001.51
2018-06-16T11:28:51.543Z,1001.47
2018-06-16T11:29:51.565Z,1001.42
2018-06-16T11:30:51.594Z,1001.40
2018-06-16T11:31:51.614Z,1001.35
2018-06-16T11:32:51.660Z,1001.34
2018-06-16T11:33:51.666Z,1001.34
2018-06-16T11:34:51.698Z,1001.38
2018-06-16T11:35:51.723Z,1001.32
2018-06-16T11:36:51.749Z,1001.28
2018-06-16T11:37:51.774Z,1001.35
2018-06-16T11:38:51.820Z,1001.40
2018-06-16T11:39:51.828Z,1001.38
2018-06-16T11:40:51.892Z,1001.41
2018-06-16T11:41:51.893Z,1001.49
2018-06-16T11:42:51.902Z,1001.51
2018-06-16T11:43:51.940Z,1001.47
2018-06-16T11:44:51.954Z,1001.44
2018-06-16T11:45:51.988Z,1001.41
2018-06-16T11:46:52.036Z,1001.43
2018-06-16T11:47:52.055Z,1001.43
2018-06-16T11:48:52.079Z,1001.40
2018-06-16T11:49:52.092Z,1001.41
2018-06-16T11:50:52.119Z,1001.36
2018-06-16T11:51:52.153Z,1001.34
2018-06-16T11:52:52.173Z,1001.32
2018-06-16T11:53:52.197Z,1001.28
2018-06-16T11:54:52.225Z,1001.27
2018-06-16T11:55:52.256Z,1001.29
2018-06-16T11:56:52.282Z,1001.26
2018-06-16T11:57:52.310Z,1001.26
2018-06-16T11:58:52.328Z,1001.24
2018-06-16T11:59:52.357Z,1001.16
2018-06-16T12:00:52.393Z,1001.16
2018-06-16T12:01:52.422Z,1001.15
2018-06-16T12:02:52.453Z,1001.15
2018-06-16T12:03:52.473Z,1001.19
2018-06-16T12:04:52.493Z,1001.18
2018-06-16T12:05:52.522Z,1001.22